Time;durP1;ratioP1;P1;durP2;ratioP2;P2;SDS_P1;SDS_P2;PMS_P1;PMS_P2;Temp;Humidity;BMP_temperature;BMP_pressure;BME280_temperature;BME280_humidity;BME280_pressure;Samples;Min_cycle;Max_cycle;Signal;HPM_P1;HPM_P2
2023/04/29 00:02:16;;;;;;;4.10;3.00;;;;;;;12.84;100.00;100017.44;5063377;28;20040;-90
2023/04/29 00:04:47;;;;;;;5.15;2.88;;;;;;;12.40;100.00;99948.47;5071188;28;20052;-91
2023/04/29 00:07:35;;;;;;;3.15;2.72;;;;;;;12.75;100.00;100023.31;5053599;28;20382;-90
2023/04/29 00:10:05;;;;;;;2.97;2.65;;;;;;;12.66;100.00;99997.31;5047543;28;20136;-92
2023/04/29 00:12:36;;;;;;;2.60;2.40;;;;;;;12.63;100.00;99987.75;5065461;28;20477;-92
2023/04/29 00:15:26;;;;;;;;;;;;;;;12.86;100.00;100028.84;5041487;28;20113;-92
2023/04/29 00:17:57;;;;;;;3.10;2.20;;;;;;;12.87;100.00;100033.19;5063948;28;20004;-91
2023/04/29 00:20:27;;;;;;;2.80;2.05;;;;;;;12.70;100.00;99998.84;5048003;28;20476;-91
2023/04/29 00:22:59;;;;;;;2.65;2.10;;;;;;;12.60;100.00;99977.28;5030490;28;20083;-91
2023/04/29 00:25:40;;;;;;;2.63;2.38;;;;;;;12.88;100.00;100023.44;5054476;28;20052;-92
2023/04/29 00:28:20;;;;;;;3.85;2.10;;;;;;;12.68;100.00;99986.59;5069923;28;20047;-92
2023/04/29 00:30:47;;;;;;;3.78;2.30;;;;;;;12.94;100.00;100031.00;5046529;28;20071;-91
2023/04/29 00:33:16;;;;;;;4.45;2.80;;;;;;;12.88;100.00;100029.59;5063067;28;20056;-90
2023/04/29 00:36:00;;;;;;;3.00;2.50;;;;;;;12.58;100.00;99981.88;5037042;28;20041;-91
2023/04/29 00:38:42;;;;;;;2.95;2.42;;;;;;;12.81;100.00;100030.91;5035313;28;20131;-90
2023/04/29 00:41:23;;;;;;;3.42;2.55;;;;;;;12.76;100.00;100038.31;5046655;28;20041;-90
2023/04/29 00:43:58;;;;;;;2.45;2.25;;;;;;;12.71;100.00;100029.78;5033315;28;20053;-91
2023/04/29 00:46:29;;;;;;;4.60;2.80;;;;;;;12.54;100.00;100011.38;5031417;28;20052;-90
2023/04/29 00:49:02;;;;;;;3.03;2.50;;;;;;;12.61;100.00;100028.63;5041910;28;20041;-90
2023/04/29 00:51:37;;;;;;;2.80;2.58;;;;;;;12.56;100.00;100033.38;5045947;28;20072;-90
2023/04/29 00:54:04;;;;;;;4.07;3.38;;;;;;;12.49;100.00;100024.06;5058576;28;20045;-91
2023/04/29 00:56:47;;;;;;;4.90;3.38;;;;;;;12.39;100.00;100017.59;5057314;28;20041;-92
2023/04/29 00:59:30;;;;;;;3.58;3.05;;;;;;;12.31;100.00;100002.13;5070192;28;20060;-91
2023/04/29 01:02:41;;;;;;;4.13;3.28;;;;;;;12.49;100.00;100029.38;5038934;28;20104;-91
2023/04/29 01:05:14;;;;;;;3.67;3.25;;;;;;;12.38;100.00;100005.28;5048065;28;20080;-92
2023/04/29 01:08:17;;;;;;;6.20;3.40;;;;;;;12.52;100.00;100026.53;5056897;28;20076;-90
2023/04/29 01:10:53;;;;;;;3.35;3.03;;;;;;;12.51;100.00;100019.50;5060340;28;20049;-90
2023/04/29 01:13:57;;;;;;;4.55;2.78;;;;;;;12.47;100.00;100017.97;5051405;28;20508;-91
2023/04/29 01:16:46;;;;;;;2.80;2.60;;;;;;;12.54;100.00;100030.81;4998990;28;20124;-92
2023/04/29 01:19:56;;;;;;;3.25;2.95;;;;;;;12.56;100.00;100034.22;5045713;28;20048;-92
2023/04/29 01:22:24;;;;;;;3.40;2.80;;;;;;;12.57;100.00;100041.25;5065029;28;20051;-91
2023/04/29 01:24:51;;;;;;;3.13;2.83;;;;;;;12.59;100.00;100043.81;5064980;28;20064;-92
2023/04/29 01:27:57;;;;;;;3.45;2.80;;;;;;;12.60;100.00;100034.88;5046757;28;20045;-93
2023/04/29 01:30:57;;;;;;;3.38;2.30;;;;;;;12.62;100.00;100033.84;5059284;28;20064;-92
2023/04/29 01:33:43;;;;;;;;;;;;;;;12.62;100.00;100032.97;5028584;28;20068;-92
2023/04/29 01:36:45;;;;;;;3.15;2.60;;;;;;;12.45;100.00;100007.44;5061752;28;19939;-91
2023/04/29 01:39:40;;;;;;;3.53;2.42;;;;;;;12.57;100.00;100038.59;5050631;28;20363;-93
2023/04/29 01:42:21;;;;;;;3.72;2.45;;;;;;;12.56;100.00;100028.94;5061179;28;20075;-90
2023/04/29 01:44:53;;;;;;;3.10;2.40;;;;;;;12.52;100.00;100021.22;5055493;28;20052;-92
2023/04/29 01:47:21;;;;;;;2.05;1.88;;;;;;;12.58;100.00;100027.03;5038244;28;20049;-90
2023/04/29 01:49:49;;;;;;;2.53;2.05;;;;;;;12.65;100.00;100036.31;5051814;28;20112;-91
2023/04/29 01:52:19;;;;;;;3.42;2.13;;;;;;;12.61;100.00;100016.19;5063291;28;20048;-91
2023/04/29 01:54:46;;;;;;;2.28;1.85;;;;;;;12.73;100.00;100035.88;5042451;28;20055;-89
2023/04/29 01:57:15;;;;;;;2.30;2.10;;;;;;;12.71;100.00;100023.63;5058160;28;20098;-91
2023/04/29 01:59:44;;;;;;;2.63;1.90;;;;;;;12.65;100.00;100011.56;5043030;28;20053;-91
2023/04/29 02:02:20;;;;;;;2.97;2.00;;;;;;;12.62;100.00;100009.06;5038285;28;20132;-92
2023/04/29 02:04:48;;;;;;;2.38;1.75;;;;;;;12.78;100.00;100039.06;5039349;28;20045;-92
2023/04/29 02:07:20;;;;;;;2.33;1.95;;;;;;;12.81;100.00;100049.50;5041722;28;20470;-91
2023/04/29 02:09:48;;;;;;;2.15;1.90;;;;;;;12.80;100.00;100046.94;5040710;28;20219;-90
2023/04/29 02:12:15;;;;;;;2.20;2.00;;;;;;;12.76;100.00;100045.41;5057657;28;20045;-90
2023/04/29 02:14:46;;;;;;;2.65;2.17;;;;;;;12.61;100.00;100020.66;5046081;28;20107;-90
2023/04/29 02:17:14;;;;;;;2.90;2.30;;;;;;;12.57;100.00;100011.19;5052865;28;20051;-90
2023/04/29 02:19:41;;;;;;;2.40;2.20;;;;;;;12.61;100.00;100028.63;5049772;28;20055;-90
2023/04/29 02:22:15;;;;;;;2.38;2.17;;;;;;;12.72;100.00;100047.44;5062103;28;20044;-89
2023/04/29 02:24:45;;;;;;;2.42;2.10;;;;;;;12.77;100.00;100050.66;5055506;28;20041;-88
2023/04/29 02:27:14;;;;;;;3.60;2.35;;;;;;;12.77;100.00;100055.97;5076079;28;20047;-91
2023/04/29 02:29:41;;;;;;;3.28;2.05;;;;;;;12.73;100.00;100049.16;5061225;28;20071;-90
2023/04/29 02:32:07;;;;;;;2.85;2.63;;;;;;;12.70;100.00;100052.00;5061046;28;20049;-90
2023/04/29 02:34:37;;;;;;;5.20;2.33;;;;;;;12.68;100.00;100064.50;5059902;28;20045;-90
2023/04/29 02:37:06;;;;;;;5.28;2.28;;;;;;;12.64;100.00;100047.88;5056049;28;20079;-90
2023/04/29 02:39:35;;;;;;;2.50;2.30;;;;;;;12.61;100.00;100048.06;5072625;28;20041;-91
2023/04/29 02:42:07;;;;;;;4.93;2.53;;;;;;;12.55;100.00;100039.63;5063371;28;20084;-90
2023/04/29 02:44:42;;;;;;;3.85;2.97;;;;;;;12.68;100.00;100064.50;5047834;28;20064;-91
2023/04/29 02:47:09;;;;;;;3.33;3.03;;;;;;;12.67;100.00;100068.09;5047161;28;20119;-91
2023/04/29 02:49:36;;;;;;;4.72;2.88;;;;;;;12.71;100.00;100063.47;5030644;28;20052;-91
2023/04/29 02:52:05;;;;;;;5.45;4.45;;;;;;;12.71;100.00;100056.34;5049452;28;20099;-91
2023/04/29 02:54:35;;;;;;;6.53;4.40;;;;;;;12.84;100.00;100078.56;5067427;28;20044;-92
2023/04/29 02:57:03;;;;;;;4.90;4.13;;;;;;;12.77;100.00;100063.06;5055592;28;20117;-92
2023/04/29 02:59:29;;;;;;;4.35;3.95;;;;;;;12.66;100.00;100047.78;5042367;28;20048;-91
2023/04/29 03:01:57;;;;;;;6.20;5.55;;;;;;;12.78;100.00;100068.28;5066599;28;20040;-92
2023/04/29 03:04:27;;;;;;;7.43;6.45;;;;;;;12.88;100.00;100073.91;5037605;28;20045;-91
2023/04/29 03:07:00;;;;;;;8.90;7.18;;;;;;;12.82;100.00;100067.16;5067657;28;20033;-91
2023/04/29 03:09:33;;;;;;;10.13;7.57;;;;;;;12.87;100.00;100075.72;5068970;28;20045;-90
2023/04/29 03:12:02;;;;;;;10.63;9.03;;;;;;;12.87;100.00;100073.06;5053076;28;20053;-90
2023/04/29 03:14:29;;;;;;;9.60;8.20;;;;;;;12.47;100.00;100012.69;5049896;28;20366;-92
2023/04/29 03:16:58;;;;;;;10.70;8.80;;;;;;;12.77;100.00;100063.06;5065577;28;20045;-92
2023/04/29 03:19:27;;;;;;;9.23;8.10;;;;;;;12.78;100.00;100060.31;5052401;28;20151;-89
2023/04/29 03:21:54;;;;;;;10.00;8.88;;;;;;;12.80;100.00;100069.06;5043130;28;20124;-90
2023/04/29 03:24:24;;;;;;;10.30;8.15;;;;;;;12.71;100.00;100056.34;5053666;28;20437;-90
2023/04/29 03:26:51;;;;;;;11.02;9.40;;;;;;;12.73;100.00;100067.75;5049334;28;20100;-91
2023/04/29 03:29:26;;;;;;;10.85;8.52;;;;;;;12.66;100.00;100066.41;5028658;28;20037;-90
2023/04/29 03:32:03;;;;;;;10.90;8.30;;;;;;;12.63;100.00;100075.41;5053713;28;20063;-91
2023/04/29 03:34:31;;;;;;;7.78;6.97;;;;;;;12.49;100.00;100056.78;5059810;28;20108;-92
2023/04/29 03:36:58;;;;;;;9.98;8.75;;;;;;;12.40;100.00;100044.06;5042812;28;20061;-91
2023/04/29 03:39:31;;;;;;;10.90;8.40;;;;;;;12.47;100.00;100071.09;5052159;28;20044;-89
2023/04/29 03:42:03;;;;;;;9.63;7.85;;;;;;;12.30;100.00;100050.84;5042540;28;20079;-92
2023/04/29 03:44:32;;;;;;;9.43;7.82;;;;;;;12.26;100.00;100039.59;5049613;28;20056;-90
2023/04/29 03:47:05;;;;;;;10.50;8.68;;;;;;;12.45;100.00;100079.16;5054690;28;20048;-92
2023/04/29 03:49:33;;;;;;;11.65;8.18;;;;;;;12.41;100.00;100080.31;5049397;28;20103;-89
2023/04/29 03:52:00;;;;;;;8.75;7.85;;;;;;;12.37;100.00;100078.78;5066884;28;20045;-93
2023/04/29 03:54:30;;;;;;;;;;;;;;;12.34;100.00;100083.41;5073276;28;20048;-89
2023/04/29 03:56:58;;;;;;;9.80;7.97;;;;;;;11.87;100.00;100021.53;5072568;28;19920;-89
2023/04/29 03:59:27;;;;;;;8.98;7.88;;;;;;;12.24;100.00;100088.41;5067625;28;20061;-90
2023/04/29 04:01:55;;;;;;;11.95;8.63;;;;;;;12.22;100.00;100085.84;5065813;28;20052;-90
2023/04/29 04:04:22;;;;;;;12.55;10.00;;;;;;;12.23;100.00;100098.16;5040378;28;20053;-91
2023/04/29 04:06:57;;;;;;;10.30;7.95;;;;;;;12.25;100.00;100098.09;5045694;28;20099;-90
2023/04/29 04:09:25;;;;;;;11.35;8.40;;;;;;;12.28;100.00;100093.44;5051857;28;20522;-91
2023/04/29 04:11:53;;;;;;;10.00;8.45;;;;;;;12.24;100.00;100093.72;5052660;28;20108;-92
2023/04/29 04:14:26;;;;;;;13.98;10.07;;;;;;;12.17;100.00;100079.94;5047463;28;20047;-90
2023/04/29 04:16:57;;;;;;;10.93;9.33;;;;;;;12.10;100.00;100089.22;5067778;28;20041;-90
2023/04/29 04:19:31;;;;;;;11.23;9.20;;;;;;;12.04;100.00;100084.25;5049156;28;20041;-92
2023/04/29 04:22:04;;;;;;;13.80;10.35;;;;;;;12.13;100.00;100099.63;5061095;28;20080;-91
2023/04/29 04:24:38;;;;;;;14.48;11.07;;;;;;;12.00;100.00;100082.72;5062224;28;20051;-92
2023/04/29 04:27:19;;;;;;;14.25;11.05;;;;;;;12.08;100.00;100128.25;5056153;28;20051;-93
2023/04/29 04:30:17;;;;;;;13.75;10.52;;;;;;;12.05;100.00;100130.22;5047714;28;20066;-92
2023/04/29 04:32:46;;;;;;;12.70;10.25;;;;;;;12.01;100.00;100120.72;5059891;28;20045;-92
2023/04/29 04:35:14;;;;;;;14.65;10.55;;;;;;;12.09;100.00;100137.09;5060182;28;20414;-91
2023/04/29 04:37:45;;;;;;;14.32;10.55;;;;;;;12.07;100.00;100147.78;5040364;28;20311;-91
2023/04/29 04:40:27;;;;;;;14.43;10.48;;;;;;;11.99;100.00;100139.38;5031432;28;20052;-90
2023/04/29 04:43:09;;;;;;;14.20;11.48;;;;;;;11.97;100.00;100143.91;5045659;28;20101;-91
2023/04/29 04:45:51;;;;;;;13.98;11.18;;;;;;;11.99;100.00;100152.66;5033015;28;20041;-92
2023/04/29 04:48:25;;;;;;;13.32;10.73;;;;;;;12.03;100.00;100150.69;5041935;28;20045;-91
2023/04/29 04:51:17;;;;;;;12.43;10.32;;;;;;;11.87;100.00;100129.47;5049085;28;20033;-91
2023/04/29 04:53:46;;;;;;;13.40;10.50;;;;;;;12.02;100.00;100165.75;5054667;28;20052;-90
2023/04/29 04:56:14;;;;;;;16.70;11.93;;;;;;;11.98;100.00;100153.59;5067400;28;20049;-90
2023/04/29 04:58:46;;;;;;;14.25;11.00;;;;;;;11.83;100.00;100138.53;5073481;28;20049;-92
2023/04/29 05:01:16;;;;;;;12.90;10.23;;;;;;;11.98;100.00;100166.00;5042471;28;20064;-93
2023/04/29 05:03:57;;;;;;;15.48;11.32;;;;;;;12.02;100.00;100172.84;5075856;28;20037;-91
2023/04/29 05:06:28;;;;;;;15.95;11.75;;;;;;;12.01;100.00;100164.03;5039217;28;20064;-91
2023/04/29 05:09:04;;;;;;;15.45;11.90;;;;;;;12.06;100.00;100156.69;5055111;28;20041;-92
2023/04/29 05:11:45;;;;;;;16.77;11.70;;;;;;;12.18;100.00;100174.56;5050630;28;20049;-93
2023/04/29 05:14:29;;;;;;;15.25;11.60;;;;;;;12.36;100.00;100199.19;5062532;28;20045;-90
2023/04/29 05:17:36;;;;;;;14.38;11.27;;;;;;;12.40;100.00;100187.47;5037133;28;20136;-91
2023/04/29 05:20:22;;;;;;;14.52;10.80;;;;;;;12.36;100.00;100187.72;5049111;28;20324;-90
2023/04/29 05:23:05;;;;;;;14.25;10.25;;;;;;;12.49;100.00;100192.22;5069483;28;20053;-93
2023/04/29 05:25:49;;;;;;;14.40;10.20;;;;;;;12.51;100.00;100187.69;5062762;28;20071;-92
2023/04/29 05:28:20;;;;;;;13.73;10.05;;;;;;;12.54;100.00;100198.16;5045138;28;20462;-90
2023/04/29 05:31:14;;;;;;;15.68;10.65;;;;;;;12.11;100.00;100144.00;5034738;28;20093;-90
2023/04/29 05:33:42;;;;;;;15.27;10.77;;;;;;;12.40;100.00;100194.56;4986955;28;20125;-91
2023/04/29 05:36:56;;;;;;;13.68;10.50;;;;;;;12.48;100.00;100218.88;5019742;28;20041;-90
2023/04/29 05:39:41;;;;;;;14.70;10.57;;;;;;;12.58;100.00;100212.13;5019924;28;20506;-90
2023/04/29 05:42:26;;;;;;;13.98;8.30;;;;;;;12.66;100.00;100225.78;5018921;28;20101;-91
2023/04/29 05:44:59;;;;;;;10.85;7.85;;;;;;;12.73;100.00;100231.63;5022961;28;20052;-90
2023/04/29 05:47:40;;;;;;;11.20;6.90;;;;;;;12.86;100.00;100233.47;5021820;28;20503;-90
2023/04/29 05:50:10;;;;;;;8.90;6.78;;;;;;;12.88;100.00;100220.94;5008227;28;20052;-90
2023/04/29 05:52:41;;;;;;;8.07;6.03;;;;;;;12.77;100.00;100195.94;5026264;28;20034;-90
2023/04/29 05:55:33;;;;;;;9.43;6.45;;;;;;;13.17;100.00;100252.94;5025757;28;20052;-89
2023/04/29 05:58:06;;;;;;;8.85;6.70;;;;;;;13.07;100.00;100249.91;5045806;28;20095;-90
2023/04/29 06:00:56;;;;;;;10.25;6.45;;;;;;;13.14;100.00;100255.75;5060654;28;20075;-90
2023/04/29 06:03:55;;;;;;;8.85;6.20;;;;;;;13.33;100.00;100275.00;5040385;28;20049;-90
2023/04/29 06:06:51;;;;;;;7.65;5.85;;;;;;;13.11;100.00;100237.31;5053989;28;20112;-90
2023/04/29 06:09:19;;;;;;;9.70;5.93;;;;;;;13.46;100.00;100280.44;5042298;28;20541;-90
2023/04/29 06:12:02;;;;;;;;;;;;;;;13.59;100.00;100287.56;5047663;28;20377;-88
2023/04/29 06:14:34;;;;;;;8.65;6.18;;;;;;;13.68;100.00;100287.03;5034592;28;19939;-90
2023/04/29 06:17:11;;;;;;;9.55;6.75;;;;;;;13.63;100.00;100274.94;5071704;28;20049;-90
2023/04/29 06:19:39;;;;;;;9.43;6.68;;;;;;;13.75;100.00;100270.66;5040129;28;20053;-90
2023/04/29 06:22:11;;;;;;;8.57;6.25;;;;;;;14.02;98.40;100275.09;5043401;28;20045;-91
2023/04/29 06:24:39;;;;;;;8.50;6.55;;;;;;;14.33;97.27;100292.66;5059479;28;20490;-88
2023/04/29 06:27:06;;;;;;;9.80;6.20;;;;;;;14.43;95.22;100290.31;5052292;28;20109;-89
2023/04/29 06:29:36;;;;;;;8.70;6.57;;;;;;;14.63;93.47;100292.53;5032384;28;20046;-89
2023/04/29 06:32:09;;;;;;;8.43;6.28;;;;;;;14.79;89.56;100292.38;5059929;28;20049;-90
2023/04/29 06:34:50;;;;;;;8.80;6.95;;;;;;;14.94;87.67;100279.84;5068401;28;20033;-89
2023/04/29 06:37:31;;;;;;;8.95;6.43;;;;;;;15.26;85.57;100296.34;5051980;28;20116;-90
2023/04/29 06:40:04;;;;;;;8.45;5.57;;;;;;;15.45;84.81;100302.13;5073051;28;20090;-90
2023/04/29 06:42:43;;;;;;;8.23;6.10;;;;;;;15.70;79.98;100296.00;5024510;28;20136;-91
2023/04/29 06:45:27;;;;;;;7.75;6.30;;;;;;;15.85;79.39;100299.41;5063978;28;20073;-89
2023/04/29 06:47:57;;;;;;;7.55;5.85;;;;;;;15.57;79.32;100304.00;5072861;28;20032;-93
2023/04/29 06:50:30;;;;;;;8.70;6.05;;;;;;;15.09;82.33;100317.00;5040074;28;20048;-92
2023/04/29 06:53:04;;;;;;;8.30;6.18;;;;;;;14.51;86.78;100300.44;5055168;28;20072;-92
2023/04/29 06:55:38;;;;;;;9.27;7.22;;;;;;;14.26;90.82;100323.31;5074671;28;20458;-90
2023/04/29 06:58:26;;;;;;;11.27;7.93;;;;;;;13.86;95.07;100297.44;5073969;28;20039;-91
2023/04/29 07:01:20;;;;;;;12.50;8.65;;;;;;;13.84;98.28;100331.31;5024604;28;20047;-91
2023/04/29 07:03:58;;;;;;;11.60;8.38;;;;;;;13.56;98.40;100340.97;5058130;28;20048;-92
2023/04/29 07:06:31;;;;;;;13.45;8.65;;;;;;;13.03;100.00;100306.91;5060871;28;20063;-91
2023/04/29 07:09:15;;;;;;;11.32;8.52;;;;;;;12.83;100.00;100285.91;5058774;28;20075;-92
2023/04/29 07:11:45;;;;;;;13.20;8.48;;;;;;;13.06;100.00;100341.28;5061360;28;20072;-92
2023/04/29 07:14:36;;;;;;;10.88;7.95;;;;;;;12.79;100.00;100308.28;5074793;28;20076;-92
2023/04/29 07:17:28;;;;;;;11.23;7.95;;;;;;;12.51;100.00;100271.81;5057801;28;20041;-91
2023/04/29 07:24:03;;;;;;;12.23;8.63;;;;;;;12.99;100.00;100343.41;5077809;28;20108;-92
2023/04/29 07:26:51;;;;;;;11.48;8.15;;;;;;;12.81;100.00;100309.94;5076102;28;20041;-94
2023/04/29 07:33:34;;;;;;;10.65;7.63;;;;;;;12.73;100.00;100306.88;5210349;22;20048;-91
2023/04/29 07:36:03;;;;;;;10.10;7.28;;;;;;;12.98;100.00;100349.69;5106394;23;20056;-93
2023/04/29 07:38:45;;;;;;;10.32;7.45;;;;;;;12.97;100.00;100363.06;5065718;28;20031;-92
2023/04/29 07:41:40;;;;;;;12.65;7.65;;;;;;;12.90;100.00;100351.94;5098513;28;20040;-93
2023/04/29 07:44:31;;;;;;;10.90;7.90;;;;;;;12.52;100.00;100289.47;5063707;28;20051;-92
2023/04/29 07:47:05;;;;;;;12.02;7.72;;;;;;;12.45;100.00;100285.44;5079370;28;20033;-92
2023/04/29 07:49:42;;;;;;;10.43;7.22;;;;;;;12.79;100.00;100349.00;5064699;28;20052;-93
2023/04/29 07:53:05;;;;;;;9.25;7.15;;;;;;;12.44;100.00;100313.81;5081406;28;20067;-92
2023/04/29 07:56:00;;;;;;;10.32;6.88;;;;;;;12.68;100.00;100351.44;5074616;28;20092;-93
2023/04/29 07:58:34;;;;;;;10.10;7.28;;;;;;;12.95;100.00;100395.03;5055415;28;20064;-92
2023/04/29 08:01:26;;;;;;;12.27;7.82;;;;;;;13.06;100.00;100388.28;5056881;28;20072;-94
2023/04/29 08:04:10;;;;;;;10.93;7.38;;;;;;;12.99;100.00;100387.75;5046763;28;20041;-92
2023/04/29 08:07:07;;;;;;;9.88;7.35;;;;;;;13.12;100.00;100401.19;5077763;28;20052;-92
2023/04/29 08:10:22;;;;;;;10.57;6.93;;;;;;;13.16;100.00;100405.44;5080244;28;20051;-92
2023/04/29 08:13:08;;;;;;;9.07;6.22;;;;;;;12.76;100.00;100330.56;5077269;28;20051;-90
2023/04/29 08:16:41;;;;;;;8.98;6.22;;;;;;;13.20;100.00;100422.94;5065694;28;20087;-91
2023/04/29 08:19:25;;;;;;;13.02;6.53;;;;;;;13.12;100.00;100430.44;5057946;28;20045;-91
2023/04/29 08:22:02;;;;;;;9.23;6.10;;;;;;;12.77;100.00;100377.47;5040229;28;20057;-93
2023/04/29 08:24:35;;;;;;;10.30;6.15;;;;;;;12.98;100.00;100412.63;5052599;28;20045;-91
2023/04/29 08:27:04;;;;;;;9.23;6.47;;;;;;;12.86;100.00;100392.06;5035401;28;20068;-91
2023/04/29 08:29:42;;;;;;;11.63;6.13;;;;;;;13.08;100.00;100431.53;5044486;28;20068;-91
2023/04/29 08:32:30;;;;;;;9.15;5.82;;;;;;;12.84;100.00;100394.78;5046419;28;20057;-91
2023/04/29 08:38:06;;;;;;;8.88;6.00;;;;;;;12.73;100.00;100402.50;5050253;28;20051;-92
2023/04/29 08:40:50;;;;;;;9.13;6.68;;;;;;;12.97;100.00;100445.44;5057389;28;20117;-92
2023/04/29 08:43:41;;;;;;;9.57;6.68;;;;;;;12.76;100.00;100385.53;5026465;28;20105;-93
2023/04/29 08:46:52;;;;;;;10.25;6.55;;;;;;;12.98;100.00;100448.03;5055038;28;20072;-91
2023/04/29 08:49:36;;;;;;;8.63;6.35;;;;;;;12.80;100.00;100450.84;5057439;28;20052;-93
2023/04/29 08:52:31;;;;;;;9.07;6.30;;;;;;;12.78;100.00;100445.63;5049659;28;20052;-92
2023/04/29 08:55:31;;;;;;;10.00;5.90;;;;;;;12.82;100.00;100451.63;5073444;28;20041;-92
2023/04/29 08:58:18;;;;;;;8.38;5.88;;;;;;;12.73;100.00;100438.84;5058784;28;20037;-91
2023/04/29 09:00:51;;;;;;;10.15;6.53;;;;;;;12.93;100.00;100458.06;5060985;28;20516;-93
2023/04/29 09:04:00;;;;;;;10.32;6.22;;;;;;;12.82;100.00;100417.94;5063984;28;20132;-89
2023/04/29 09:06:39;;;;;;;8.93;6.65;;;;;;;13.18;100.00;100462.91;5003899;28;20042;-91
2023/04/29 09:09:14;;;;;;;8.93;6.72;;;;;;;12.84;100.00;100391.28;5001760;28;20104;-91
2023/04/29 09:11:46;;;;;;;8.73;5.60;;;;;;;13.38;100.00;100459.06;5032120;28;20040;-91
2023/04/29 09:15:03;;;;;;;7.45;5.10;;;;;;;13.40;100.00;100454.53;5061660;28;20044;-91
2023/04/29 09:21:23;;;;;;;7.35;5.70;;;;;;;13.55;100.00;100455.44;5078925;28;20059;-93
2023/04/29 09:24:03;;;;;;;12.30;6.28;;;;;;;13.61;100.00;100450.63;5091964;28;20044;-92
2023/04/29 09:26:47;;;;;;;13.98;5.28;;;;;;;13.33;100.00;100424.78;5089106;28;20040;-92
2023/04/29 09:29:39;;;;;;;7.80;5.25;;;;;;;13.57;100.00;100461.53;5032488;28;20041;-92
2023/04/29 09:32:46;;;;;;;6.50;5.03;;;;;;;13.32;100.00;100391.16;5059011;28;20044;-92
2023/04/29 09:35:39;;;;;;;7.60;5.57;;;;;;;13.96;100.00;100471.66;5068621;28;20163;-92
2023/04/29 09:38:22;;;;;;;6.57;4.70;;;;;;;13.97;100.00;100476.03;5071521;28;20046;-92
2023/04/29 09:44:35;;;;;;;7.75;5.78;;;;;;;13.06;100.00;100430.81;5334031;22;20066;-92
2023/04/29 09:47:29;;;;;;;6.70;5.18;;;;;;;13.24;100.00;100491.78;5067935;28;20096;-93
2023/04/29 09:50:18;;;;;;;8.50;5.63;;;;;;;13.11;100.00;100484.56;5065394;28;20051;-92
2023/04/29 09:53:32;;;;;;;7.25;5.97;;;;;;;12.94;100.00;100481.03;5059611;28;20049;-91
2023/04/29 10:00:38;;;;;;;7.57;5.35;;;;;;;12.43;100.00;100433.41;4969145;28;20067;-92
2023/04/29 10:04:47;;;;;;;5.43;4.18;;;;;;;12.58;100.00;100488.38;4960001;28;20034;-91
2023/04/29 10:08:40;;;;;;;5.00;4.32;;;;;;;12.64;100.00;100496.84;4987438;28;20151;-91
2023/04/29 10:22:46;;;;;;;4.15;3.30;;;;;;;13.15;100.00;100500.28;4929999;29;20063;-92
2023/04/29 10:25:39;;;;;;;3.83;3.22;;;;;;;13.36;100.00;100500.91;4928562;29;20068;-91
2023/04/29 10:28:21;;;;;;;3.17;2.55;;;;;;;13.47;100.00;100482.50;4964703;29;20039;-92
2023/04/29 10:30:55;;;;;;;3.58;2.45;;;;;;;13.73;100.00;100480.13;4987407;28;20053;-91
2023/04/29 10:33:44;;;;;;;3.30;2.67;;;;;;;14.12;100.00;100501.75;5290304;23;20044;-92
2023/04/29 10:36:52;;;;;;;3.25;2.13;;;;;;;14.24;96.66;100487.69;5074723;28;20056;-91
2023/04/29 10:40:17;;;;;;;3.70;2.50;;;;;;;14.39;94.52;100476.09;5615401;22;20052;-90
2023/04/29 10:43:33;;;;;;;3.67;2.70;;;;;;;14.79;93.03;100502.13;5221089;22;20049;-91
2023/04/29 10:46:44;;;;;;;5.88;2.90;;;;;;;14.83;92.01;100500.97;5080647;28;20093;-91
2023/04/29 10:58:47;;;;;;;5.95;3.92;;;;;;;15.35;93.07;100503.81;5018686;28;20041;-91
2023/04/29 11:05:16;;;;;;;3.42;3.10;;;;;;;15.70;86.92;100497.06;5028542;28;20100;-91
2023/04/29 11:08:23;;;;;;;3.25;2.78;;;;;;;15.45;86.06;100504.94;5035982;28;20042;-92
2023/04/29 11:11:22;;;;;;;3.53;3.10;;;;;;;14.94;86.29;100446.03;5029268;28;20043;-92
2023/04/29 11:14:42;;;;;;;4.10;3.30;;;;;;;15.19;84.91;100503.97;5011021;28;20382;-93
2023/04/29 11:22:04;;;;;;;3.70;3.33;;;;;;;14.35;88.79;100437.25;4997722;28;20082;-92
2023/04/29 11:25:02;;;;;;;4.85;3.60;;;;;;;14.58;91.16;100483.84;5000611;28;20037;-92
2023/04/29 11:27:42;;;;;;;4.72;3.42;;;;;;;14.15;92.59;100400.38;5027524;28;20037;-92
2023/04/29 11:30:23;;;;;;;4.60;3.80;;;;;;;14.65;91.35;100460.31;5054593;28;20052;-92
2023/04/29 11:32:51;;;;;;;3.43;3.13;;;;;;;15.00;89.28;100488.28;5019067;28;20049;-91
2023/04/29 11:35:48;;;;;;;5.72;3.35;;;;;;;14.99;89.97;100497.22;5022037;28;20048;-93
2023/04/29 11:38:46;;;;;;;3.95;3.28;;;;;;;14.68;89.30;100470.78;5035166;28;20049;-92
2023/04/29 11:45:11;;;;;;;3.75;3.42;;;;;;;15.26;86.13;100499.97;5019804;28;20061;-93
2023/04/29 11:47:51;;;;;;;;;;;;;;;15.45;83.74;100499.59;5019508;28;20134;-91
2023/04/29 11:50:35;;;;;;;3.67;3.08;;;;;;;15.32;81.43;100496.03;5020820;28;19991;-91
2023/04/29 11:53:41;;;;;;;3.20;2.88;;;;;;;14.87;81.74;100451.84;5033384;28;20076;-91
2023/04/29 11:56:24;;;;;;;3.75;2.80;;;;;;;15.03;82.82;100497.91;5013831;28;20056;-92
2023/04/29 11:59:17;;;;;;;4.70;3.30;;;;;;;14.64;84.57;100463.94;5030106;28;20042;-93
2023/04/29 12:02:03;;;;;;;3.83;3.08;;;;;;;14.63;86.64;100504.88;5021596;28;20038;-92
2023/04/29 12:08:46;;;;;;;4.13;2.85;;;;;;;14.68;86.68;100492.13;5028196;28;20060;-93
2023/04/29 12:11:31;;;;;;;3.33;2.55;;;;;;;14.80;85.25;100503.81;5018458;28;20077;-93
2023/04/29 12:14:05;;;;;;;5.80;2.60;;;;;;;14.70;85.18;100508.88;5031228;28;20037;-93
2023/04/29 12:16:46;;;;;;;2.60;2.40;;;;;;;14.67;85.80;100509.06;5011855;28;20054;-93
2023/04/29 12:19:37;;;;;;;3.17;2.50;;;;;;;14.50;84.23;100487.91;5011932;28;20073;-93
2023/04/29 12:22:20;;;;;;;2.45;2.10;;;;;;;14.42;85.41;100479.56;5027072;28;20494;-93
2023/04/29 12:25:40;;;;;;;4.40;2.70;;;;;;;14.47;86.46;100488.13;5013517;28;20412;-91
2023/04/29 12:34:05;;;;;;;2.60;2.38;;;;;;;14.49;85.81;100513.72;5099454;23;20072;-92
2023/04/29 12:36:48;;;;;;;2.85;2.45;;;;;;;14.32;83.80;100480.06;5057317;28;20049;-92
2023/04/29 12:39:30;;;;;;;2.40;2.13;;;;;;;14.47;83.17;100504.13;5061319;28;20039;-92
2023/04/29 12:42:17;;;;;;;2.88;2.40;;;;;;;14.37;85.78;100483.31;5049847;28;20033;-94
2023/04/29 12:45:28;;;;;;;2.22;1.92;;;;;;;14.20;85.65;100459.50;5077216;28;20049;-92
2023/04/29 12:48:01;;;;;;;2.10;1.80;;;;;;;14.38;84.65;100482.38;5058627;28;20075;-94
2023/04/29 12:50:50;;;;;;;3.30;2.63;;;;;;;14.52;83.93;100491.34;5043101;28;20091;-94
2023/04/29 12:53:45;;;;;;;3.05;2.40;;;;;;;14.81;84.30;100517.03;5074148;28;20048;-92
2023/04/29 12:56:37;;;;;;;2.58;2.30;;;;;;;14.95;84.98;100498.38;5064361;28;20062;-92
2023/04/29 12:59:16;;;;;;;4.10;2.80;;;;;;;15.24;82.27;100509.00;5038168;28;20132;-92
2023/04/29 13:02:02;;;;;;;2.10;1.90;;;;;;;15.29;80.38;100493.53;5047160;28;20200;-92
2023/04/29 13:04:55;;;;;;;2.45;2.08;;;;;;;15.42;78.52;100467.81;5028696;28;20068;-94
2023/04/29 13:07:39;;;;;;;2.65;2.28;;;;;;;15.91;76.40;100523.28;5028775;28;20061;-92
2023/04/29 13:10:13;;;;;;;2.42;2.22;;;;;;;15.92;75.32;100507.16;5043321;28;20124;-93
2023/04/29 13:12:59;;;;;;;5.65;4.53;;;;;;;15.82;76.74;100481.19;5062392;28;20044;-94
2023/04/29 13:15:32;;;;;;;3.80;2.30;;;;;;;15.92;74.67;100476.91;5043809;28;20037;-91
2023/04/29 13:18:12;;;;;;;2.42;2.05;;;;;;;16.20;73.96;100518.66;5061463;28;20040;-91
2023/04/29 13:20:41;;;;;;;2.63;2.00;;;;;;;16.07;73.66;100527.50;5043905;28;20127;-93
2023/04/29 13:23:25;;;;;;;2.38;1.90;;;;;;;15.86;75.28;100526.28;5063800;28;20044;-90
2023/04/29 13:26:09;;;;;;;3.65;2.28;;;;;;;15.59;77.88;100530.75;5043693;28;20062;-92
2023/04/29 13:28:51;;;;;;;3.55;2.25;;;;;;;15.21;79.59;100490.53;5026480;28;20041;-93